Hlavní strana
METAR-TAF:

METAR-TAF

Letiště :

Cape Peel West, Nunavut, Kanada

zeměpisná šířka: 69-02N, zeměpisná délka: 107-49W, výška: 165 m

Aktuální stav počasí

Zpráva byla vytvořena před 1 hodinou a 4 minutami, v 14:00 UTC
Východní vítr 14 kt
Teplota -28°C
Vlhkost vzduchu 68%
Tlak 1013 hPa
Oblačno až skoro zataženo ve výšce 8000 ft
Zataženo ve výšce 8500 ft

METAR: CWPX 191400Z AUTO 09014KT ////SM //// BKN080 OVC085 M28/M32 A2991

Čas: 09:04 (15:04 UTC)


TAF: chybějící

Stav a předpovědi počasí z více než 4 000 letišť (zprávy METAR a TAF).

Červené a žluté tečky na mapě představují dostupné meteorologické stanice.

Když kurzor umístíte na tečku, zobrazí se název stanice.

Pak kliknutím zobrazíte stav a předpověď počasí.

Chcete-li změnit mapu, kliknutím na zelené tlačítko se znaménkem +mapu přiblížíte, kliknutím na zelené tlačítko se znaménkem – mapu oddálíte a kliknutím na zelené šipky přejdete na sousední mapy.


METAR-TAF: